Time;durP1;ratioP1;P1;durP2;ratioP2;P2;SDS_P1;SDS_P2;PMS_P1;PMS_P2;Temp;Humidity;BMP_temperature;BMP_pressure;BME280_temperature;BME280_humidity;BME280_pressure;Samples;Min_cycle;Max_cycle;Signal;HPM_P1;HPM_P2
2022/03/06 00:02:09;;;;;;;14.85;4.47;;;;;;;-0.03;84.46;102009.38;5099037;27;20140;-71
2022/03/06 00:04:36;;;;;;;9.90;4.75;;;;;;;-0.21;84.28;102006.25;5096463;27;20040;-72
2022/03/06 00:07:02;;;;;;;9.32;4.68;;;;;;;-0.31;85.03;102012.41;5081462;28;20089;-71
2022/03/06 00:09:29;;;;;;;8.90;5.50;;;;;;;-0.39;84.76;102017.66;5094090;27;20044;-71
2022/03/06 00:11:56;;;;;;;8.02;4.78;;;;;;;-0.48;85.36;102022.97;5075511;28;20110;-71
2022/03/06 00:14:23;;;;;;;3.85;3.47;;;;;;;-0.47;85.78;102022.09;5098369;27;20047;-73
2022/03/06 00:16:51;;;;;;;6.88;4.75;;;;;;;-0.45;86.11;102027.25;5099613;27;20040;-73
2022/03/06 00:19:18;;;;;;;11.50;4.07;;;;;;;-0.43;86.02;102022.91;5094825;27;20052;-72
2022/03/06 00:21:46;;;;;;;12.85;5.55;;;;;;;-0.39;85.89;102032.31;5096024;27;20104;-70
2022/03/06 00:24:12;;;;;;;9.98;5.40;;;;;;;-0.39;85.58;102024.56;5098187;27;20097;-72
2022/03/06 00:26:39;;;;;;;5.38;4.28;;;;;;;-0.34;85.05;102023.63;5077359;28;20043;-71
2022/03/06 00:29:06;;;;;;;10.45;6.25;;;;;;;-0.43;85.46;102025.47;5098881;27;20043;-72
2022/03/06 00:31:34;;;;;;;8.35;4.45;;;;;;;-0.56;85.60;102029.13;5097281;27;20028;-71
2022/03/06 00:34:00;;;;;;;6.35;4.88;;;;;;;-0.49;86.03;102028.16;5088091;28;20127;-74
2022/03/06 00:36:27;;;;;;;15.57;5.78;;;;;;;-0.54;85.44;102027.38;5098917;27;20059;-72
2022/03/06 00:38:54;;;;;;;17.08;5.63;;;;;;;-0.52;85.36;102036.78;5102609;28;20043;-70
2022/03/06 00:41:22;;;;;;;11.13;4.45;;;;;;;-0.51;85.91;102035.06;5114264;27;20117;-71
2022/03/06 00:43:49;;;;;;;10.30;4.47;;;;;;;-0.61;85.69;102030.88;5089775;28;20036;-73
2022/03/06 00:46:16;;;;;;;11.00;4.80;;;;;;;-0.71;85.96;102031.91;5079380;28;20120;-70
2022/03/06 00:48:44;;;;;;;3.30;2.55;;;;;;;-0.76;87.13;102036.25;5057271;28;20499;-71
2022/03/06 00:51:13;;;;;;;7.68;3.70;;;;;;;-0.77;87.21;102037.13;5056964;28;20068;-72
2022/03/06 00:53:39;;;;;;;4.65;2.97;;;;;;;-0.86;86.45;102033.81;5074260;28;20063;-71
2022/03/06 00:56:06;;;;;;;10.20;4.53;;;;;;;-0.81;87.38;102044.06;5066533;28;20062;-70
2022/03/06 00:58:33;;;;;;;5.30;3.67;;;;;;;-0.78;87.14;102049.19;5077508;28;20059;-73
2022/03/06 01:00:59;;;;;;;8.40;5.47;;;;;;;-0.86;87.70;102044.97;5074105;28;20043;-72
2022/03/06 01:03:27;;;;;;;21.52;4.40;;;;;;;-0.95;87.16;102045.13;5068727;28;20036;-71
2022/03/06 01:05:55;;;;;;;8.45;4.35;;;;;;;-0.89;87.37;102045.03;5081700;28;20127;-71
2022/03/06 01:08:21;;;;;;;8.05;3.65;;;;;;;-0.76;87.15;102046.56;5076067;28;20060;-72
2022/03/06 01:10:49;;;;;;;10.35;5.80;;;;;;;-0.65;86.48;102044.72;5078652;28;20043;-72
2022/03/06 01:13:16;;;;;;;12.38;5.18;;;;;;;-0.67;87.20;102055.06;5070386;28;20042;-71
2022/03/06 01:15:43;;;;;;;11.02;3.83;;;;;;;-0.67;86.51;102052.50;5073456;28;20036;-70
2022/03/06 01:18:10;;;;;;;4.90;3.78;;;;;;;-0.78;86.75;102059.50;5063094;28;20085;-72
2022/03/06 01:20:38;;;;;;;9.98;4.88;;;;;;;-0.84;86.61;102058.72;5070753;28;20056;-71
2022/03/06 01:23:08;;;;;;;4.10;3.15;;;;;;;-0.79;86.52;102062.09;5065354;28;20046;-73
2022/03/06 01:25:35;;;;;;;10.18;4.78;;;;;;;-0.71;86.17;102058.53;5075975;28;20132;-72
2022/03/06 01:28:02;;;;;;;5.07;4.00;;;;;;;-0.53;86.00;102065.19;5078891;28;20061;-72
2022/03/06 01:30:28;;;;;;;6.95;3.75;;;;;;;-0.59;85.67;102060.09;5074967;28;20047;-72
2022/03/06 01:32:55;;;;;;;5.68;4.60;;;;;;;-0.70;85.25;102062.84;5077271;28;20036;-71
2022/03/06 01:35:22;;;;;;;10.52;4.65;;;;;;;-0.74;85.97;102060.31;5077127;28;20047;-72
2022/03/06 01:37:49;;;;;;;6.90;4.88;;;;;;;-0.77;85.54;102065.50;5065079;28;20041;-71
2022/03/06 01:40:19;;;;;;;9.95;4.45;;;;;;;-0.76;86.18;102059.47;5057246;28;20044;-71
2022/03/06 01:42:47;;;;;;;7.40;5.78;;;;;;;-0.82;85.54;102057.81;5057527;28;20052;-73
2022/03/06 01:45:14;;;;;;;6.47;3.95;;;;;;;-0.85;86.29;102061.31;5071293;28;20044;-72
2022/03/06 01:47:43;;;;;;;6.78;4.18;;;;;;;-0.83;86.85;102060.41;5087372;27;20051;-72
2022/03/06 01:50:13;;;;;;;10.63;3.63;;;;;;;-0.79;85.70;102064.69;5068881;28;20093;-72
2022/03/06 01:52:40;;;;;;;7.05;4.38;;;;;;;-0.77;85.70;102060.34;5067578;28;20048;-72
2022/03/06 01:55:07;;;;;;;8.90;4.13;;;;;;;-0.80;86.27;102055.22;5069900;28;20115;-72
2022/03/06 01:57:35;;;;;;;10.25;6.22;;;;;;;-0.76;85.87;102057.75;5076266;28;20046;-72
2022/03/06 02:00:05;;;;;;;10.68;5.93;;;;;;;-0.61;85.52;102057.56;5066900;28;20048;-71
2022/03/06 02:02:33;;;;;;;6.05;4.50;;;;;;;-0.62;85.17;102067.91;5075075;28;20064;-70
2022/03/06 02:05:00;;;;;;;11.25;4.90;;;;;;;-0.60;84.76;102064.44;5074100;28;20048;-71
2022/03/06 02:07:27;;;;;;;5.13;3.42;;;;;;;-0.61;84.60;102067.00;5077557;28;20043;-72
2022/03/06 02:09:54;;;;;;;12.20;6.03;;;;;;;-0.62;84.73;102065.34;5090373;28;20107;-72
2022/03/06 02:12:24;;;;;;;5.85;3.83;;;;;;;-0.63;85.06;102068.78;5088829;28;20051;-73
2022/03/06 02:14:52;;;;;;;7.68;4.03;;;;;;;-0.73;85.33;102062.03;5079778;28;20059;-71
2022/03/06 02:17:19;;;;;;;5.32;4.53;;;;;;;-0.77;86.32;102070.66;5078598;28;20123;-71
2022/03/06 02:19:53;;;;;;;11.23;4.43;;;;;;;-0.80;85.91;102071.56;5072810;28;20087;-73
2022/03/06 02:22:22;;;;;;;10.50;5.45;;;;;;;-0.81;86.15;102066.41;5073428;28;20059;-71
2022/03/06 02:24:49;;;;;;;13.75;6.20;;;;;;;-0.77;86.37;102073.22;5077078;28;20054;-71
2022/03/06 02:27:16;;;;;;;6.32;4.38;;;;;;;-0.74;86.18;102071.47;5072551;28;20047;-72
2022/03/06 02:29:43;;;;;;;8.63;5.50;;;;;;;-0.85;86.53;102067.31;5073378;28;20052;-75
2022/03/06 02:32:11;;;;;;;8.65;5.20;;;;;;;-0.80;85.97;102070.72;5074010;28;20097;-72
2022/03/06 02:34:38;;;;;;;7.38;4.80;;;;;;;-0.79;85.71;102083.59;5078023;28;20043;-71
2022/03/06 02:37:05;;;;;;;7.97;5.60;;;;;;;-0.72;85.87;102076.63;5080031;28;20067;-72
2022/03/06 02:39:33;;;;;;;9.80;5.30;;;;;;;-0.56;84.52;102072.97;5075250;28;20063;-71
2022/03/06 02:42:00;;;;;;;9.02;5.57;;;;;;;-0.49;84.45;102077.19;5072735;28;20926;-72
2022/03/06 02:44:26;;;;;;;11.52;6.43;;;;;;;-0.38;83.25;102070.16;5075019;28;20114;-71
2022/03/06 02:46:53;;;;;;;7.40;5.38;;;;;;;-0.36;82.27;102068.38;5077793;28;20067;-72
2022/03/06 02:49:20;;;;;;;10.82;4.60;;;;;;;-0.44;82.82;102065.94;5071219;28;20135;-72
2022/03/06 02:51:47;;;;;;;14.82;4.45;;;;;;;-0.43;83.19;102072.81;5071292;28;20079;-71
2022/03/06 02:54:14;;;;;;;15.95;5.18;;;;;;;-0.50;83.77;102080.63;5075068;28;20082;-73
2022/03/06 02:56:42;;;;;;;5.28;3.97;;;;;;;-0.65;84.01;102078.25;5068448;28;20048;-73
2022/03/06 02:59:08;;;;;;;5.38;4.72;;;;;;;-0.70;85.09;102077.47;5071500;28;20133;-69
2022/03/06 03:01:40;;;;;;;7.82;6.22;;;;;;;-0.60;84.16;102079.03;5077905;28;20032;-71
2022/03/06 03:04:07;;;;;;;6.83;4.27;;;;;;;-0.70;83.85;102078.31;5081890;28;20036;-72
2022/03/06 03:06:33;;;;;;;5.18;3.92;;;;;;;-0.69;84.48;102074.00;5078045;28;20070;-72
2022/03/06 03:09:00;;;;;;;14.95;5.18;;;;;;;-0.81;84.43;102076.75;5079870;28;20047;-72
2022/03/06 03:11:29;;;;;;;6.22;3.72;;;;;;;-0.80;84.77;102076.72;5075559;28;20040;-73
2022/03/06 03:13:56;;;;;;;4.97;3.95;;;;;;;-0.75;85.30;102081.81;5085021;28;20050;-71
2022/03/06 03:16:23;;;;;;;5.95;4.22;;;;;;;-0.71;84.46;102081.75;5076844;28;20055;-73
2022/03/06 03:18:50;;;;;;;9.05;4.00;;;;;;;-0.69;84.12;102077.44;5082488;28;20043;-71
2022/03/06 03:21:16;;;;;;;5.25;3.58;;;;;;;-0.83;84.56;102080.22;5094242;28;20032;-70
2022/03/06 03:23:43;;;;;;;3.45;2.95;;;;;;;-1.04;85.14;102086.47;5100414;28;20032;-71
2022/03/06 03:26:10;;;;;;;4.97;3.78;;;;;;;-1.13;85.32;102077.97;5093918;28;20064;-71
2022/03/06 03:28:37;;;;;;;4.95;3.53;;;;;;;-1.21;86.49;102085.78;5083821;28;20046;-71
2022/03/06 03:31:05;;;;;;;4.05;2.92;;;;;;;-1.29;86.29;102084.13;5072716;28;20040;-72
2022/03/06 03:33:32;;;;;;;6.07;3.78;;;;;;;-1.37;87.04;102085.94;5075957;28;20074;-71
2022/03/06 03:35:58;;;;;;;6.70;4.20;;;;;;;-1.49;87.53;102089.50;5079997;28;20055;-71
2022/03/06 03:38:28;;;;;;;6.95;4.40;;;;;;;-1.60;88.49;102078.41;5078839;28;20064;-71
2022/03/06 03:40:55;;;;;;;12.02;4.70;;;;;;;-1.69;88.52;102092.25;5075915;28;20135;-71
2022/03/06 03:43:22;;;;;;;5.65;2.97;;;;;;;-1.78;89.42;102093.19;5087758;27;20510;-73
2022/03/06 03:45:49;;;;;;;13.05;5.35;;;;;;;-1.79;88.54;102103.50;5101600;27;20041;-70
2022/03/06 03:48:17;;;;;;;4.75;3.88;;;;;;;-1.78;89.69;102103.47;5098697;27;20131;-70
2022/03/06 03:50:44;;;;;;;5.82;4.60;;;;;;;-1.70;89.12;102098.28;5095742;27;20070;-71
2022/03/06 03:53:10;;;;;;;5.43;3.60;;;;;;;-1.60;89.11;102109.31;5100022;27;20132;-71
2022/03/06 03:55:37;;;;;;;4.43;3.40;;;;;;;-1.50;88.74;102105.81;5098246;27;20119;-72
2022/03/06 03:58:03;;;;;;;4.95;3.67;;;;;;;-1.43;88.75;102110.03;5099567;27;20134;-72
2022/03/06 04:00:30;;;;;;;7.35;3.95;;;;;;;-1.44;88.12;102099.75;5096392;27;20044;-70
2022/03/06 04:02:58;;;;;;;14.65;5.43;;;;;;;-1.46;88.15;102106.63;5098878;27;20108;-71
2022/03/06 04:05:26;;;;;;;8.40;4.18;;;;;;;-1.28;87.37;102102.19;5100407;27;20140;-71
2022/03/06 04:07:53;;;;;;;9.20;5.63;;;;;;;-1.24;87.18;102109.00;5101080;27;20101;-72
2022/03/06 04:10:21;;;;;;;3.50;2.95;;;;;;;-1.28;86.88;102102.19;5096519;28;20054;-72
2022/03/06 04:12:48;;;;;;;5.90;4.00;;;;;;;-1.45;87.12;102103.19;5099816;27;20054;-71
2022/03/06 04:15:15;;;;;;;5.43;4.18;;;;;;;-1.52;88.13;102101.53;5101447;27;20046;-73
2022/03/06 04:17:43;;;;;;;6.78;4.38;;;;;;;-1.61;88.21;102103.34;5100787;27;20035;-73
2022/03/06 04:20:10;;;;;;;4.65;3.58;;;;;;;-1.60;88.90;102108.50;5097684;27;20613;-71
2022/03/06 04:22:38;;;;;;;9.20;4.68;;;;;;;-1.67;88.84;102119.72;5108267;27;20063;-74
2022/03/06 04:25:05;;;;;;;6.57;4.50;;;;;;;-1.66;88.59;102112.81;5109227;27;20127;-71
2022/03/06 04:27:31;;;;;;;9.13;5.10;;;;;;;-1.62;88.90;102114.53;5080219;28;20962;-72
2022/03/06 04:29:58;;;;;;;11.15;5.88;;;;;;;-1.49;88.66;102120.41;5083712;27;20070;-71
2022/03/06 04:32:25;;;;;;;21.67;7.32;;;;;;;-1.38;87.78;102112.56;5080780;27;20043;-72
2022/03/06 04:34:52;;;;;;;6.65;4.05;;;;;;;-1.27;87.08;102123.66;5077478;28;20113;-71
2022/03/06 04:37:18;;;;;;;4.85;3.75;;;;;;;-1.36;87.41;102126.31;5099599;27;20040;-72
2022/03/06 04:39:46;;;;;;;4.80;3.28;;;;;;;-1.46;87.44;102120.41;5101645;27;20130;-69
2022/03/06 04:42:13;;;;;;;24.20;4.93;;;;;;;-1.46;88.48;102134.97;5094742;27;20039;-72
2022/03/06 04:44:39;;;;;;;6.85;3.47;;;;;;;-1.50;88.16;102131.56;5093264;27;20063;-73
2022/03/06 04:47:07;;;;;;;10.95;4.63;;;;;;;-1.54;88.73;102140.22;5095042;27;20059;-72
2022/03/06 04:49:34;;;;;;;5.47;3.53;;;;;;;-1.60;88.30;102133.41;5096013;27;20046;-72
2022/03/06 04:52:01;;;;;;;6.55;4.68;;;;;;;-1.56;89.07;102136.78;5095252;27;20039;-71
2022/03/06 04:54:27;;;;;;;7.40;5.43;;;;;;;-1.50;88.39;102146.19;5098415;27;20105;-71
2022/03/06 04:56:55;;;;;;;9.40;5.30;;;;;;;-1.42;88.69;102155.56;5098170;27;20031;-73
2022/03/06 04:59:22;;;;;;;9.43;4.50;;;;;;;-1.43;88.57;102156.41;5097612;27;20039;-72
2022/03/06 05:01:49;;;;;;;10.63;5.40;;;;;;;-1.46;88.52;102164.19;5094526;28;20051;-71
2022/03/06 05:04:15;;;;;;;11.20;5.50;;;;;;;-1.39;88.42;102162.41;5095445;27;20130;-72
2022/03/06 05:06:42;;;;;;;10.20;6.07;;;;;;;-1.34;88.47;102164.06;5098952;27;20084;-72
2022/03/06 05:09:09;;;;;;;16.83;5.97;;;;;;;-1.40;89.10;102158.16;5097473;28;20478;-72
2022/03/06 05:11:35;;;;;;;6.25;4.38;;;;;;;-1.48;89.06;102157.34;5098220;27;20058;-71
2022/03/06 05:14:03;;;;;;;7.88;4.00;;;;;;;-1.51;88.79;102165.94;5095514;28;20023;-72
2022/03/06 05:16:30;;;;;;;6.82;4.55;;;;;;;-1.45;88.38;102163.34;5081129;28;20470;-72
2022/03/06 05:18:57;;;;;;;3.42;2.92;;;;;;;-1.48;88.95;102160.78;5079205;27;20051;-72
2022/03/06 05:21:24;;;;;;;13.98;7.55;;;;;;;-1.58;88.72;102158.28;5093865;28;20031;-72
2022/03/06 05:23:50;;;;;;;6.97;4.30;;;;;;;-1.62;88.54;102163.47;5094505;28;20082;-71
2022/03/06 05:26:17;;;;;;;10.73;4.93;;;;;;;-1.64;89.58;102157.47;5092706;27;20082;-72
2022/03/06 05:28:43;;;;;;;11.77;6.22;;;;;;;-1.63;89.57;102169.47;5076556;27;20075;-71
